Time;durP1;ratioP1;P1;durP2;ratioP2;P2;SDS_P1;SDS_P2;PMS_P1;PMS_P2;Temp;Humidity;BMP_temperature;BMP_pressure;BME280_temperature;BME280_humidity;BME280_pressure;Samples;Min_cycle;Max_cycle;Signal;HPM_P1;HPM_P2
2022/03/27 00:01:36;;;;;;;22.35;14.45;;;;;;;6.77;51.27;96848.56;10323793;28;98157;-66
2022/03/27 00:06:39;;;;;;;20.23;14.07;;;;;;;6.54;52.41;96854.56;10321101;28;97005;-66
2022/03/27 00:11:42;;;;;;;18.73;12.95;;;;;;;6.57;51.86;96855.19;10317632;28;97568;-66
2022/03/27 00:16:46;;;;;;;21.98;13.43;;;;;;;6.50;51.48;96866.09;10318229;28;96930;-66
2022/03/27 00:21:50;;;;;;;23.50;14.73;;;;;;;6.55;51.36;96854.44;10314759;28;96753;-66
2022/03/27 00:26:53;;;;;;;21.40;14.23;;;;;;;6.39;52.21;96865.06;10315106;28;97842;-66
2022/03/27 00:31:57;;;;;;;22.17;14.70;;;;;;;6.30;53.46;96860.53;10306630;28;97050;-66
2022/03/27 00:37:00;;;;;;;20.92;12.88;;;;;;;6.34;52.35;96866.34;10316641;28;97950;-66
2022/03/27 00:42:03;;;;;;;18.42;12.90;;;;;;;6.38;51.38;96867.78;10318932;28;96849;-66
2022/03/27 00:47:08;;;;;;;18.35;13.02;;;;;;;6.27;51.50;96871.94;10312302;28;98093;-66
2022/03/27 00:52:11;;;;;;;22.38;14.05;;;;;;;6.15;52.44;96877.16;10320953;28;96746;-66
2022/03/27 00:57:14;;;;;;;19.67;13.57;;;;;;;5.85;53.73;96866.16;10320040;28;96951;-66
2022/03/27 01:02:21;;;;;;;25.13;15.27;;;;;;;5.86;54.10;96873.00;10326113;28;96963;-66
2022/03/27 01:07:24;;;;;;;28.83;15.93;;;;;;;5.70;54.43;96875.78;10326281;28;98563;-66
2022/03/27 01:12:37;;;;;;;24.42;15.23;;;;;;;5.70;54.75;96872.34;10320796;28;96789;-66
2022/03/27 01:17:42;;;;;;;19.25;13.75;;;;;;;5.54;54.20;96877.72;10321564;28;98641;-66
2022/03/27 01:22:46;;;;;;;20.00;13.53;;;;;;;5.61;53.72;96878.97;10323109;28;97578;-66
2022/03/27 01:27:49;;;;;;;22.83;14.35;;;;;;;5.53;53.21;96881.22;10325652;28;96841;-66
2022/03/27 01:32:53;;;;;;;22.02;14.30;;;;;;;5.43;54.05;96875.84;10326533;28;97104;-66
2022/03/27 01:37:57;;;;;;;22.17;14.87;;;;;;;5.31;54.12;96877.47;10326656;28;97761;-66
2022/03/27 01:43:00;;;;;;;21.02;14.68;;;;;;;5.45;53.72;96873.16;10325213;28;98554;-66
2022/03/27 01:48:04;;;;;;;22.00;14.07;;;;;;;5.50;52.66;96873.69;10329582;28;99222;-66
2022/03/27 01:53:09;;;;;;;24.02;14.98;;;;;;;5.26;54.58;96878.69;10326543;28;100320;-66
2022/03/27 01:58:11;;;;;;;27.38;16.23;;;;;;;5.30;54.96;96875.78;10328318;28;97887;-66
2022/03/27 02:03:15;;;;;;;24.48;15.43;;;;;;;5.24;54.41;96881.38;10324595;28;98990;-66
2022/03/27 02:08:19;;;;;;;25.83;16.33;;;;;;;5.03;55.67;96882.75;10310719;28;99890;-66
2022/03/27 02:13:32;;;;;;;26.80;16.25;;;;;;;4.88;56.06;96880.19;10327974;28;96829;-66
2022/03/27 02:18:35;;;;;;;26.60;16.95;;;;;;;4.69;57.74;96884.88;10327129;28;97671;-67
2022/03/27 02:23:39;;;;;;;24.67;16.08;;;;;;;4.70;56.86;96881.38;10326485;28;100565;-66
2022/03/27 02:28:43;;;;;;;23.58;14.95;;;;;;;4.68;56.71;96888.38;10326370;28;97693;-66
2022/03/27 02:33:46;;;;;;;22.25;15.38;;;;;;;4.56;57.46;96885.66;10320719;28;98528;-66
2022/03/27 02:38:50;;;;;;;22.00;14.55;;;;;;;4.60;56.48;96901.00;10312478;28;96875;-66
2022/03/27 02:43:53;;;;;;;25.92;14.27;;;;;;;4.52;55.42;96893.69;10326593;28;99008;-66
2022/03/27 02:48:56;;;;;;;20.55;13.52;;;;;;;4.48;54.84;96897.38;10315422;28;96874;-66
2022/03/27 02:54:00;;;;;;;25.65;15.65;;;;;;;4.21;57.53;96890.34;10320834;28;100078;-66
2022/03/27 02:59:03;;;;;;;19.95;13.52;;;;;;;4.11;57.36;96894.44;10318685;28;97255;-66
2022/03/27 03:04:07;;;;;;;25.90;15.77;;;;;;;4.05;58.09;96898.22;10317478;28;96794;-66
2022/03/27 03:09:12;;;;;;;24.50;15.03;;;;;;;4.06;58.31;96897.28;10318629;28;98246;-66
2022/03/27 03:14:15;;;;;;;23.40;14.57;;;;;;;4.00;57.96;96892.47;10314211;28;97065;-66
2022/03/27 03:19:34;;;;;;;21.85;13.73;;;;;;;3.98;56.82;96900.31;10322067;28;99170;-66
2022/03/27 03:24:38;;;;;;;25.58;16.05;;;;;;;3.92;58.16;96899.88;10317387;28;102334;-66
2022/03/27 03:29:41;;;;;;;21.92;14.15;;;;;;;3.86;57.69;96900.22;10320708;28;96945;-66
2022/03/27 03:34:44;;;;;;;20.20;14.00;;;;;;;3.77;57.08;96912.75;10321732;28;100162;-66
2022/03/27 03:39:48;;;;;;;24.58;14.88;;;;;;;3.70;58.57;96914.03;10321108;28;96782;-66
2022/03/27 03:44:51;;;;;;;20.88;13.90;;;;;;;3.85;57.07;96916.63;10323003;28;98321;-66
2022/03/27 03:49:54;;;;;;;22.00;14.50;;;;;;;3.81;57.10;96913.41;10320838;28;97591;-66
2022/03/27 03:54:58;;;;;;;22.75;14.63;;;;;;;3.75;57.90;96914.59;10330786;28;96919;-66
2022/03/27 04:00:01;;;;;;;24.77;14.35;;;;;;;3.68;58.15;96913.31;10315324;28;97000;-66
2022/03/27 04:05:06;;;;;;;23.40;14.63;;;;;;;3.41;59.49;96921.72;10328916;28;97943;-65
2022/03/27 04:10:11;;;;;;;21.27;13.75;;;;;;;3.24;59.84;96917.50;10330576;28;97029;-66
2022/03/27 04:15:15;;;;;;;21.73;14.80;;;;;;;3.32;59.34;96921.38;10328400;28;96956;-66
2022/03/27 04:20:19;;;;;;;22.15;14.18;;;;;;;3.40;59.42;96925.22;10324289;28;98508;-66
2022/03/27 04:25:23;;;;;;;34.50;21.20;;;;;;;3.40;59.04;96929.56;10325371;28;97174;-66
2022/03/27 04:30:26;;;;;;;20.77;14.50;;;;;;;3.35;58.18;96924.63;10323127;28;97830;-66
2022/03/27 04:35:29;;;;;;;20.92;13.55;;;;;;;3.22;59.02;96933.97;10325282;28;99065;-66
2022/03/27 04:40:34;;;;;;;30.67;19.45;;;;;;;3.11;59.66;96931.16;10332244;28;98410;-65
2022/03/27 04:45:37;;;;;;;22.63;14.13;;;;;;;3.01;59.83;96933.41;10324724;28;98442;-65
2022/03/27 04:50:40;;;;;;;25.90;15.52;;;;;;;3.04;59.70;96939.25;10330485;28;98567;-65
2022/03/27 04:55:44;;;;;;;26.88;16.80;;;;;;;3.03;59.33;96934.16;10330118;28;98753;-66
2022/03/27 05:00:49;;;;;;;24.42;14.98;;;;;;;2.91;60.04;96942.56;10327951;28;97047;-66
2022/03/27 05:05:52;;;;;;;23.20;14.27;;;;;;;2.93;58.90;96943.31;10317500;28;98224;-66
2022/03/27 05:10:57;;;;;;;21.98;12.68;;;;;;;2.88;58.72;96948.75;10325702;28;96876;-66
2022/03/27 05:15:59;;;;;;;22.67;14.15;;;;;;;2.78;58.14;96942.41;10332557;28;97012;-66
2022/03/27 05:21:02;;;;;;;22.38;15.30;;;;;;;2.66;59.78;96960.19;10328113;28;97427;-66
2022/03/27 05:26:07;;;;;;;21.95;14.30;;;;;;;2.60;60.14;96952.78;10317022;28;97844;-66
2022/03/27 05:31:10;;;;;;;25.35;14.85;;;;;;;2.57;61.36;96955.53;10312382;28;98694;-66
2022/03/27 05:36:13;;;;;;;23.02;14.20;;;;;;;2.56;60.23;96955.59;10325064;28;98012;-66
2022/03/27 05:41:17;;;;;;;21.02;13.70;;;;;;;2.56;59.85;96958.19;10311864;28;97237;-66
2022/03/27 05:46:21;;;;;;;20.50;12.73;;;;;;;2.63;59.59;96970.69;10324973;28;97012;-66
2022/03/27 05:51:24;;;;;;;22.70;12.25;;;;;;;2.60;58.24;96977.78;10324646;28;97548;-65
2022/03/27 05:56:29;;;;;;;22.88;13.45;;;;;;;2.44;59.23;96980.28;10325516;28;97405;-66
2022/03/27 06:01:31;;;;;;;22.15;12.82;;;;;;;2.54;58.39;96993.56;10323193;28;96772;-66
2022/03/27 06:06:35;;;;;;;21.48;14.00;;;;;;;2.58;59.24;97000.22;10322542;28;98331;-66
2022/03/27 06:11:39;;;;;;;23.45;15.18;;;;;;;2.50;61.49;97005.78;10316977;28;97060;-66
2022/03/27 06:16:42;;;;;;;25.10;15.38;;;;;;;2.63;60.25;97005.97;10318410;28;96864;-66
2022/03/27 06:21:45;;;;;;;22.92;14.68;;;;;;;2.77;60.56;97007.81;10321349;28;98169;-66
2022/03/27 06:26:49;;;;;;;23.95;15.07;;;;;;;2.90;59.01;97014.00;10319391;28;97742;-66
2022/03/27 06:31:53;;;;;;;22.83;13.75;;;;;;;2.99;58.44;97017.84;10325515;28;97206;-66
2022/03/27 06:36:56;;;;;;;19.73;13.00;;;;;;;3.05;59.26;97015.78;10321340;28;96932;-65
2022/03/27 06:42:00;;;;;;;20.42;12.15;;;;;;;3.16;57.71;97022.13;10313225;28;97524;-65
2022/03/27 06:47:06;;;;;;;19.80;12.32;;;;;;;3.11;56.83;97024.09;10316191;28;96779;-65
2022/03/27 06:52:08;;;;;;;22.38;12.73;;;;;;;3.28;56.70;97024.03;10313495;28;96787;-66
2022/03/27 06:57:16;;;;;;;20.38;11.85;;;;;;;3.38;56.24;97029.53;10308877;28;98637;-65
2022/03/27 07:07:40;;;;;;;19.70;12.27;;;;;;;3.73;54.65;97022.41;10320450;28;99159;-66
2022/03/27 07:12:46;;;;;;;19.33;13.02;;;;;;;3.88;54.07;97032.78;10314544;28;96918;-66
2022/03/27 07:17:50;;;;;;;17.83;11.32;;;;;;;4.00;54.39;97032.09;10325042;28;98266;-66
2022/03/27 07:22:54;;;;;;;19.33;12.37;;;;;;;4.12;53.42;97026.22;10319131;28;98630;-66
2022/03/27 07:27:59;;;;;;;23.88;13.63;;;;;;;4.24;53.52;97034.19;10318553;28;99146;-66
2022/03/27 07:33:03;;;;;;;20.35;12.63;;;;;;;4.30;53.76;97034.69;10310027;28;98620;-66
2022/03/27 07:38:07;;;;;;;20.48;13.20;;;;;;;4.26;53.70;97038.34;10323603;28;96853;-66
2022/03/27 07:43:11;;;;;;;21.20;13.02;;;;;;;4.41;54.19;97046.97;10327195;28;96871;-66
2022/03/27 07:48:14;;;;;;;18.50;13.10;;;;;;;4.58;54.05;97048.56;10322175;28;97154;-66
2022/03/27 07:53:17;;;;;;;17.33;11.85;;;;;;;4.79;53.46;97046.47;10315692;28;96916;-66
2022/03/27 07:58:21;;;;;;;18.95;12.82;;;;;;;4.89;52.80;97041.53;10319154;28;97790;-66
2022/03/27 08:03:24;;;;;;;19.67;12.00;;;;;;;5.08;52.61;97046.44;10320184;28;97580;-66
2022/03/27 08:08:27;;;;;;;22.33;13.93;;;;;;;5.34;53.08;97052.63;10314545;28;97024;-66
2022/03/27 08:13:32;;;;;;;27.40;16.08;;;;;;;5.62;54.16;97046.53;10321805;28;96765;-66
2022/03/27 08:18:36;;;;;;;26.17;16.00;;;;;;;5.86;52.69;97048.47;10313739;28;97772;-66
2022/03/27 08:23:38;;;;;;;25.27;14.98;;;;;;;6.07;52.78;97056.66;10324714;28;96899;-66
2022/03/27 08:28:44;;;;;;;26.05;14.75;;;;;;;6.18;52.18;97051.59;10323267;28;98764;-66
2022/03/27 08:33:48;;;;;;;27.00;15.85;;;;;;;6.45;52.32;97056.72;10308359;28;96785;-66
2022/03/27 08:38:51;;;;;;;30.52;17.45;;;;;;;6.77;52.74;97056.31;10314589;28;97128;-66
2022/03/27 08:43:59;;;;;;;28.40;17.25;;;;;;;7.04;52.06;97055.38;10320133;28;97831;-66
2022/03/27 08:49:09;;;;;;;30.88;17.63;;;;;;;7.19;51.70;97050.91;10314086;28;96940;-66
2022/03/27 08:54:15;;;;;;;33.60;18.67;;;;;;;7.47;51.90;97054.19;10308884;28;98605;-66
2022/03/27 08:59:21;;;;;;;29.75;17.30;;;;;;;7.50;51.22;97054.78;10315841;28;98471;-66
2022/03/27 09:04:24;;;;;;;29.10;16.50;;;;;;;7.40;51.23;97058.97;10311705;28;98458;-66
2022/03/27 09:09:26;;;;;;;30.48;18.00;;;;;;;7.64;51.57;97059.00;10324395;28;96873;-66
2022/03/27 09:14:32;;;;;;;31.85;17.98;;;;;;;8.10;50.80;97042.69;10327378;28;96724;-66
2022/03/27 09:19:39;;;;;;;28.73;17.45;;;;;;;8.38;50.82;97050.22;10326857;28;97423;-66
2022/03/27 09:24:42;;;;;;;29.90;17.45;;;;;;;8.51;50.66;97051.78;10321666;28;98850;-66
2022/03/27 09:29:59;;;;;;;31.48;17.92;;;;;;;8.73;50.65;97044.97;10321608;28;97434;-66
2022/03/27 09:35:06;;;;;;;31.70;18.05;;;;;;;8.96;50.22;97040.59;10317894;28;98470;-66
2022/03/27 09:40:12;;;;;;;29.95;18.65;;;;;;;9.18;49.31;97039.78;10332718;28;96902;-66
2022/03/27 09:45:18;;;;;;;32.13;18.30;;;;;;;9.48;49.47;97047.00;10329010;28;98834;-65
2022/03/27 09:50:34;;;;;;;32.58;18.88;;;;;;;9.79;48.54;97043.75;10328558;28;97871;-66
2022/03/27 09:55:37;;;;;;;35.55;20.67;;;;;;;10.11;48.53;97040.31;10331032;28;97236;-66
2022/03/27 10:00:43;;;;;;;31.15;19.55;;;;;;;10.41;47.35;97029.97;10320373;28;97777;-66
2022/03/27 10:06:30;;;;;;;34.55;20.33;;;;;;;10.58;47.29;97035.56;10327406;28;98458;-66
2022/03/27 10:11:35;;;;;;;32.53;20.63;;;;;;;10.87;46.80;97033.09;10319367;28;100786;-61
2022/03/27 10:16:46;;;;;;;34.35;19.38;;;;;;;11.38;45.67;97034.06;10323429;28;98559;-62
2022/03/27 10:21:52;;;;;;;32.33;19.08;;;;;;;11.79;45.18;97026.13;10316881;28;96832;-62
2022/03/27 10:27:01;;;;;;;33.20;20.38;;;;;;;12.03;44.30;97021.31;10322998;28;96998;-62
2022/03/27 10:32:11;;;;;;;33.60;20.23;;;;;;;12.34;43.95;97005.47;10328057;28;96847;-62
2022/03/27 10:37:24;;;;;;;33.70;20.77;;;;;;;12.36;43.23;97002.72;10326516;28;96928;-60
2022/03/27 10:42:35;;;;;;;33.35;21.42;;;;;;;12.53;42.56;97001.13;10318568;28;97392;-62
2022/03/27 10:47:41;;;;;;;29.92;19.27;;;;;;;12.79;42.60;96991.72;10329612;28;104138;-62
2022/03/27 10:53:08;;;;;;;33.50;20.17;;;;;;;13.02;42.03;96986.13;10326460;28;96853;-62
2022/03/27 10:58:34;;;;;;;31.40;20.00;;;;;;;13.20;42.17;96975.69;10327109;28;97291;-62
2022/03/27 11:03:47;;;;;;;30.65;20.30;;;;;;;13.31;41.03;96972.03;10325807;28;97083;-62
2022/03/27 11:08:51;;;;;;;32.35;19.25;;;;;;;13.51;40.90;96972.75;10321818;28;96889;-62
2022/03/27 11:13:54;;;;;;;30.63;19.37;;;;;;;13.73;40.25;96966.25;10312639;28;98659;-63
2022/03/27 11:18:59;;;;;;;31.02;19.85;;;;;;;13.97;40.03;96963.84;10309094;28;96953;-62
2022/03/27 11:24:26;;;;;;;30.67;19.23;;;;;;;14.21;39.95;96965.03;10311533;28;98653;-60
2022/03/27 11:29:29;;;;;;;109.20;54.30;;;;;;;15.48;82.00;96969.66;10323985;28;98879;-61
2022/03/27 11:34:34;;;;;;;61.92;36.00;;;;;;;15.46;83.98;96966.38;10326076;28;96886;-63
2022/03/27 11:39:38;;;;;;;31.98;20.55;;;;;;;15.45;85.09;96962.06;10325413;28;97904;-63
2022/03/27 11:50:02;;;;;;;26.45;17.15;;;;;;;15.55;75.01;96961.09;10328416;28;97064;-64
2022/03/27 11:55:07;;;;;;;27.08;17.50;;;;;;;15.77;62.87;96957.06;10337628;28;96868;-64
2022/03/27 12:00:10;;;;;;;28.77;17.75;;;;;;;16.03;55.32;96949.84;10329385;28;98842;-63
2022/03/27 12:05:15;;;;;;;24.27;16.95;;;;;;;16.23;48.88;96942.41;10326989;28;96782;-64
2022/03/27 12:10:18;;;;;;;;;;;;;;;16.53;51.10;96947.16;10329811;28;97325;-64
2022/03/27 12:15:21;;;;;;;26.80;17.20;;;;;;;16.59;46.18;96949.97;10327296;28;97061;-64
2022/03/27 12:20:26;;;;;;;25.58;16.75;;;;;;;16.61;42.66;96940.06;10327484;28;96827;-64
2022/03/27 12:25:29;;;;;;;24.70;16.83;;;;;;;16.95;41.28;96935.53;10332704;28;96772;-64
2022/03/27 12:30:33;;;;;;;27.35;17.88;;;;;;;17.28;39.49;96930.13;10326240;28;96959;-64
2022/03/27 12:35:37;;;;;;;26.25;18.23;;;;;;;17.41;38.01;96929.56;10325305;28;97047;-64
2022/03/27 12:40:45;;;;;;;24.98;16.77;;;;;;;17.44;35.89;96931.84;10331152;28;98093;-64
2022/03/27 12:45:48;;;;;;;24.38;16.38;;;;;;;17.61;35.41;96920.19;10333255;28;96782;-64
2022/03/27 12:50:54;;;;;;;24.00;16.90;;;;;;;18.15;35.30;96915.84;10338080;28;97980;-64
2022/03/27 12:55:58;;;;;;;29.52;17.58;;;;;;;18.68;34.41;96906.88;10338194;28;98043;-64
2022/03/27 13:01:06;;;;;;;26.13;17.52;;;;;;;18.95;33.81;96901.16;10330508;28;97238;-65
2022/03/27 13:06:12;;;;;;;25.77;18.40;;;;;;;18.93;32.84;96901.31;10337463;28;96843;-65
2022/03/27 13:11:21;;;;;;;27.38;17.90;;;;;;;19.38;32.45;96895.97;10337686;28;96886;-64
2022/03/27 13:16:27;;;;;;;23.85;16.95;;;;;;;19.69;31.80;96892.19;10335777;28;96942;-64
2022/03/27 13:21:33;;;;;;;25.90;16.45;;;;;;;19.94;31.54;96890.00;10341283;28;98934;-64
2022/03/27 13:26:38;;;;;;;22.77;16.77;;;;;;;20.65;29.85;96889.94;10331272;28;97029;-65
2022/03/27 13:31:41;;;;;;;22.95;16.83;;;;;;;21.20;28.37;96875.91;10336807;28;96813;-65
2022/03/27 13:36:49;;;;;;;22.83;17.25;;;;;;;22.45;27.71;96876.25;10337270;28;96826;-65
2022/03/27 13:47:15;;;;;;;19.65;15.55;;;;;;;24.50;25.33;96871.88;10323763;28;97016;-65
2022/03/27 13:52:19;;;;;;;20.40;15.35;;;;;;;25.42;24.59;96861.16;10330470;28;96914;-65
2022/03/27 13:57:22;;;;;;;18.90;15.07;;;;;;;26.03;23.70;96868.34;10314924;28;97685;-65
2022/03/27 14:02:25;;;;;;;16.08;13.43;;;;;;;26.29;22.69;96856.38;10336128;28;97410;-65
2022/03/27 14:07:30;;;;;;;18.70;14.70;;;;;;;25.73;22.71;96851.28;10333849;28;96747;-67
2022/03/27 14:12:33;;;;;;;17.75;14.85;;;;;;;25.33;22.96;96853.69;10334678;28;96818;-65
2022/03/27 14:17:37;;;;;;;17.23;13.98;;;;;;;25.48;22.49;96840.72;10332861;28;98231;-65
2022/03/27 14:22:42;;;;;;;13.82;11.70;;;;;;;25.07;20.81;96839.63;10332314;28;100545;-65
2022/03/27 14:27:46;;;;;;;12.93;10.75;;;;;;;25.17;21.58;96833.75;10332951;28;96825;-65
2022/03/27 14:32:50;;;;;;;10.10;9.05;;;;;;;24.58;19.72;96833.41;10331537;28;96815;-66
2022/03/27 14:37:54;;;;;;;;;;;;;;;24.91;21.21;96821.53;10333197;28;97265;-65
2022/03/27 14:42:56;;;;;;;12.35;9.82;;;;;;;25.97;19.61;96811.19;10331936;28;97138;-65
2022/03/27 14:47:59;;;;;;;13.83;11.50;;;;;;;26.02;18.28;96818.53;10333340;28;98652;-65
2022/03/27 14:53:04;;;;;;;12.53;10.53;;;;;;;25.74;18.73;96812.78;10319936;28;100602;-65
2022/03/27 14:58:08;;;;;;;11.90;10.32;;;;;;;27.74;17.80;96812.66;10332094;28;96888;-65
2022/03/27 15:03:11;;;;;;;13.52;10.90;;;;;;;29.32;17.27;96800.53;10325389;28;99627;-65
2022/03/27 15:08:16;;;;;;;11.30;10.15;;;;;;;29.55;16.50;96802.13;10327365;28;98230;-66
2022/03/27 15:13:19;;;;;;;11.45;9.73;;;;;;;29.72;16.73;96796.63;10329244;28;98339;-65
2022/03/27 15:18:21;;;;;;;;;;;;;;;30.39;17.71;96790.91;10324336;28;98500;-66
2022/03/27 15:23:26;;;;;;;15.60;11.77;;;;;;;30.26;18.32;96792.19;10335140;28;96926;-66
2022/03/27 15:28:29;;;;;;;14.63;13.00;;;;;;;28.99;18.77;96786.22;10335664;28;96695;-66
2022/03/27 15:33:32;;;;;;;15.88;13.30;;;;;;;28.22;19.30;96787.06;10314183;28;98608;-66
2022/03/27 15:38:36;;;;;;;14.77;12.35;;;;;;;28.21;19.38;96797.00;10316643;28;98515;-64
2022/03/27 15:43:42;;;;;;;15.73;12.32;;;;;;;28.85;18.23;96789.53;10320458;28;99385;-65
2022/03/27 15:48:45;;;;;;;14.30;11.75;;;;;;;29.58;17.72;96790.06;10321936;28;97088;-64
2022/03/27 15:53:49;;;;;;;13.30;11.82;;;;;;;29.83;17.99;96794.03;10313001;28;97147;-64
2022/03/27 15:58:52;;;;;;;13.23;11.63;;;;;;;29.80;18.04;96789.97;10316237;28;96899;-64
2022/03/27 16:03:56;;;;;;;13.77;11.07;;;;;;;29.70;17.82;96793.38;10322169;28;96894;-64
2022/03/27 16:09:02;;;;;;;15.52;12.00;;;;;;;28.92;17.92;96785.59;10318179;28;98611;-64
2022/03/27 16:14:05;;;;;;;15.98;12.48;;;;;;;29.11;18.11;96793.34;10314572;28;98029;-64
2022/03/27 16:19:08;;;;;;;15.65;12.18;;;;;;;29.05;17.92;96788.97;10323099;28;98962;-65
2022/03/27 16:24:13;;;;;;;13.57;11.13;;;;;;;29.21;17.66;96793.44;10325162;28;97106;-64
2022/03/27 16:29:17;;;;;;;13.10;10.73;;;;;;;29.57;17.24;96798.38;10327094;28;96844;-64
2022/03/27 16:34:19;;;;;;;11.77;10.25;;;;;;;28.60;17.53;96794.34;10326931;28;96916;-64
2022/03/27 16:39:25;;;;;;;11.27;9.80;;;;;;;27.91;18.17;96796.53;10323680;28;97829;-64
2022/03/27 16:44:27;;;;;;;11.68;9.80;;;;;;;27.20;18.62;96802.31;10327271;28;96833;-64
2022/03/27 16:49:30;;;;;;;10.68;9.52;;;;;;;26.26;19.23;96798.75;10327118;28;100454;-65
2022/03/27 16:54:35;;;;;;;13.18;10.15;;;;;;;25.23;19.81;96796.25;10329208;28;97293;-64
2022/03/27 16:59:38;;;;;;;12.20;9.40;;;;;;;24.90;20.23;96796.66;10326889;28;97234;-64
2022/03/27 17:04:41;;;;;;;13.80;9.80;;;;;;;24.17;20.50;96805.47;10329861;28;97235;-64
2022/03/27 17:09:45;;;;;;;12.63;9.37;;;;;;;22.96;21.14;96808.94;10322854;28;97436;-64
2022/03/27 17:14:52;;;;;;;12.43;10.70;;;;;;;21.61;22.20;96808.53;10321345;28;96738;-64
2022/03/27 17:19:56;;;;;;;12.52;10.07;;;;;;;20.50;23.67;96810.41;10322684;28;98007;-64
2022/03/27 17:25:00;;;;;;;14.50;10.75;;;;;;;19.49;24.52;96817.78;10326799;28;99328;-64
2022/03/27 17:30:05;;;;;;;12.50;8.88;;;;;;;18.78;25.21;96821.91;10328081;28;97320;-64
2022/03/27 17:35:10;;;;;;;12.10;8.73;;;;;;;17.94;25.38;96817.72;10329126;28;96821;-63
2022/03/27 17:40:14;;;;;;;10.80;7.72;;;;;;;17.46;25.70;96818.94;10330935;28;97172;-63
2022/03/27 17:45:18;;;;;;;8.95;7.10;;;;;;;16.92;25.72;96820.59;10332043;28;97853;-64
2022/03/27 17:50:21;;;;;;;10.67;6.77;;;;;;;16.02;29.58;96824.34;10321850;28;100461;-63
2022/03/27 17:55:27;;;;;;;7.75;6.03;;;;;;;15.23;31.54;96833.69;10330782;28;96865;-63
2022/03/27 18:00:29;;;;;;;12.82;7.13;;;;;;;14.74;31.69;96835.22;10333125;28;96668;-63
2022/03/27 18:05:33;;;;;;;13.02;7.00;;;;;;;14.33;32.33;96842.94;10327653;28;96848;-63
2022/03/27 18:10:38;;;;;;;10.95;6.53;;;;;;;14.10;33.16;96839.16;10316767;28;98550;-63
2022/03/27 18:15:41;;;;;;;;;;;;;;;13.43;33.81;96845.72;10317822;28;100176;-63
2022/03/27 18:20:44;;;;;;;8.93;6.80;;;;;;;13.11;34.84;96851.47;10325525;28;97256;-63
2022/03/27 18:25:48;;;;;;;7.30;5.68;;;;;;;12.65;36.65;96850.63;10315531;28;99790;-63
2022/03/27 18:30:51;;;;;;;9.87;6.70;;;;;;;12.27;36.70;96852.44;10339799;28;98149;-63
2022/03/27 18:35:54;;;;;;;8.15;5.65;;;;;;;11.89;37.90;96854.19;10326959;28;98751;-63
2022/03/27 18:40:59;;;;;;;13.75;7.97;;;;;;;11.62;37.63;96863.56;10333844;28;97206;-62
2022/03/27 18:46:06;;;;;;;24.92;19.08;;;;;;;11.42;38.12;96856.72;10330672;28;97890;-62
2022/03/27 18:51:09;;;;;;;8.48;6.07;;;;;;;11.29;38.59;96867.41;10318149;28;96808;-63
2022/03/27 18:56:14;;;;;;;9.70;6.22;;;;;;;10.97;39.48;96874.50;10330565;28;97225;-63
2022/03/27 19:01:17;;;;;;;9.05;5.68;;;;;;;10.91;39.04;96880.28;10324976;28;98108;-63
2022/03/27 19:06:21;;;;;;;7.47;5.55;;;;;;;10.73;39.32;96876.66;10320753;28;98910;-62
2022/03/27 19:11:25;;;;;;;7.63;5.78;;;;;;;10.65;40.31;96887.75;10313639;28;97925;-63
2022/03/27 19:16:29;;;;;;;9.00;6.03;;;;;;;10.31;40.79;96889.84;10302039;28;96822;-63
2022/03/27 19:21:42;;;;;;;9.77;6.35;;;;;;;10.19;41.62;96892.50;10316139;28;97061;-63
2022/03/27 19:26:46;;;;;;;9.27;6.07;;;;;;;10.23;41.67;96895.69;10329311;28;96924;-63
2022/03/27 19:31:50;;;;;;;9.43;6.22;;;;;;;10.25;40.86;96899.00;10330247;28;97169;-70
2022/03/27 19:36:53;;;;;;;8.60;6.07;;;;;;;9.91;42.44;96920.09;10325339;28;97305;-63
2022/03/27 19:41:58;;;;;;;11.07;5.85;;;;;;;9.60;43.82;96925.22;10325138;28;100510;-63
2022/03/27 19:47:01;;;;;;;9.77;6.43;;;;;;;9.58;44.64;96923.69;10330460;28;97026;-62
2022/03/27 19:52:04;;;;;;;12.98;7.72;;;;;;;9.56;45.50;96929.03;10317729;28;99105;-62
2022/03/27 19:57:09;;;;;;;9.35;6.45;;;;;;;9.30;47.00;96933.72;10323328;28;96913;-63
2022/03/27 20:02:11;;;;;;;11.60;8.90;;;;;;;8.87;46.83;96935.31;10327974;28;98972;-63
2022/03/27 20:07:15;;;;;;;10.95;6.72;;;;;;;8.81;47.23;96948.00;10325085;28;97091;-65
2022/03/27 20:12:19;;;;;;;10.68;6.72;;;;;;;8.56;48.38;96960.31;10326967;28;97170;-62
2022/03/27 20:17:22;;;;;;;12.27;7.53;;;;;;;8.18;49.29;96964.03;10328722;28;96966;-62
2022/03/27 20:22:25;;;;;;;11.45;7.43;;;;;;;8.26;48.13;96969.50;10326682;28;96974;-63
2022/03/27 20:27:29;;;;;;;12.20;8.23;;;;;;;8.38;47.81;96967.75;10323455;28;96862;-63
2022/03/27 20:32:32;;;;;;;12.77;8.60;;;;;;;8.33;47.89;96965.47;10328765;28;97931;-62
2022/03/27 20:37:35;;;;;;;12.20;7.00;;;;;;;7.99;48.56;96972.38;10320093;28;98430;-62
2022/03/27 20:42:41;;;;;;;10.75;7.43;;;;;;;7.97;48.64;96975.09;10319076;28;98412;-62
2022/03/27 20:47:44;;;;;;;30.27;17.30;;;;;;;7.93;48.33;96976.28;10324912;28;98003;-63
2022/03/27 20:52:47;;;;;;;11.80;8.07;;;;;;;7.76;48.97;96976.69;10321310;28;98662;-63
2022/03/27 20:57:51;;;;;;;11.07;7.20;;;;;;;7.60;49.41;96977.78;10319989;28;99419;-63
2022/03/27 21:02:54;;;;;;;10.63;7.90;;;;;;;7.57;49.66;96988.41;10318359;28;97242;-65
2022/03/27 21:07:57;;;;;;;9.13;6.90;;;;;;;7.53;49.70;96979.19;10323013;28;97650;-64
2022/03/27 21:13:02;;;;;;;12.32;6.90;;;;;;;7.44;49.71;96987.66;10320683;28;99380;-63
2022/03/27 21:18:05;;;;;;;8.68;6.43;;;;;;;7.18;50.36;96995.53;10325171;28;97586;-62
2022/03/27 21:23:08;;;;;;;11.82;7.60;;;;;;;7.14;50.09;96993.25;10328501;28;100951;-63
2022/03/27 21:28:12;;;;;;;9.85;6.72;;;;;;;7.07;50.60;96994.59;10322819;28;97422;-63
2022/03/27 21:33:15;;;;;;;9.52;7.18;;;;;;;6.90;51.04;97001.75;10316364;28;98245;-63
2022/03/27 21:38:18;;;;;;;12.98;7.38;;;;;;;6.83;50.68;96993.59;10327415;28;97064;-64
2022/03/27 21:43:43;;;;;;;11.35;7.10;;;;;;;6.79;51.15;96994.72;10325479;28;97398;-63
2022/03/27 21:48:46;;;;;;;8.50;6.38;;;;;;;6.73;51.38;96992.56;10319736;28;97492;-63
2022/03/27 21:53:49;;;;;;;10.63;6.78;;;;;;;6.68;50.90;96998.97;10323871;28;96926;-63
2022/03/27 21:58:53;;;;;;;10.90;6.88;;;;;;;6.66;51.19;97001.72;10323410;28;99450;-63
2022/03/27 22:03:58;;;;;;;10.17;6.67;;;;;;;6.63;50.65;97002.72;10324697;28;98791;-63
2022/03/27 22:09:00;;;;;;;10.90;6.53;;;;;;;6.55;50.64;97004.19;10320458;28;97898;-64
2022/03/27 22:14:06;;;;;;;12.48;7.13;;;;;;;6.42;51.88;96999.81;10332598;28;96884;-63
2022/03/27 22:19:10;;;;;;;8.98;5.78;;;;;;;6.16;52.83;97008.53;10324262;28;97211;-63
2022/03/27 22:24:13;;;;;;;12.15;7.35;;;;;;;5.93;53.79;97008.28;10317031;28;97609;-63
2022/03/27 22:29:17;;;;;;;10.90;6.68;;;;;;;5.80;53.67;97017.78;10322131;28;98521;-63
2022/03/27 22:34:20;;;;;;;11.15;7.47;;;;;;;5.69;53.69;97016.69;10319700;28;97440;-63
2022/03/27 22:39:23;;;;;;;9.95;6.72;;;;;;;5.56;53.89;97010.63;10322783;28;98137;-63
2022/03/27 22:44:27;;;;;;;9.25;6.80;;;;;;;5.46;53.99;97006.97;10312065;28;97331;-63
2022/03/27 22:49:30;;;;;;;12.15;7.15;;;;;;;5.34;54.05;97004.22;10313660;28;97973;-64
2022/03/27 22:54:33;;;;;;;13.65;8.57;;;;;;;5.24;55.06;97007.50;10325963;28;97869;-63
2022/03/27 22:59:37;;;;;;;10.48;7.72;;;;;;;5.13;55.36;97005.53;10329145;28;96708;-63
2022/03/27 23:04:40;;;;;;;13.23;9.25;;;;;;;5.15;55.19;97007.13;10319046;28;97337;-63
2022/03/27 23:09:43;;;;;;;12.02;8.38;;;;;;;5.14;55.11;97010.63;10324702;28;98522;-63
2022/03/27 23:14:47;;;;;;;12.77;8.25;;;;;;;5.15;55.37;97003.72;10320082;28;98515;-63
2022/03/27 23:19:51;;;;;;;13.60;8.50;;;;;;;5.05;55.33;97008.63;10323526;28;97978;-63
2022/03/27 23:24:54;;;;;;;12.60;7.60;;;;;;;5.01;55.34;97007.16;10320940;28;97181;-63
2022/03/27 23:29:58;;;;;;;10.02;7.05;;;;;;;4.95;55.37;97013.53;10326838;28;98831;-62
2022/03/27 23:35:01;;;;;;;14.88;7.75;;;;;;;4.80;54.73;97004.09;10322636;28;97142;-63